createdAt,value
2018-12-17T00:00:30.466Z,28.53
2018-12-17T00:02:58.929Z,26.83
2018-12-17T00:05:27.428Z,27.13
2018-12-17T00:07:55.825Z,26.47
2018-12-17T00:10:24.280Z,27.27
2018-12-17T00:12:52.705Z,27.07
2018-12-17T00:15:21.134Z,24.83
2018-12-17T00:17:49.546Z,25.53
2018-12-17T00:20:17.950Z,25.07
2018-12-17T00:22:46.420Z,24.73
2018-12-17T00:25:14.814Z,25.77
2018-12-17T00:27:43.233Z,24.63
2018-12-17T00:30:11.641Z,23.27
2018-12-17T00:32:40.056Z,24.10
2018-12-17T00:35:08.586Z,22.93
2018-12-17T00:37:36.991Z,24.33
2018-12-17T00:40:07.009Z,23.53
2018-12-17T00:42:35.393Z,23.90
2018-12-17T00:45:04.126Z,22.87
2018-12-17T00:47:32.541Z,22.87
2018-12-17T00:50:00.931Z,23.03
2018-12-17T00:52:29.458Z,22.83
2018-12-17T00:54:58.002Z,22.50
2018-12-17T00:57:26.438Z,23.00
2018-12-17T00:59:55.063Z,23.80
2018-12-17T01:02:23.474Z,23.57
2018-12-17T01:04:51.895Z,23.97
2018-12-17T01:07:24.614Z,23.03
2018-12-17T01:09:53.150Z,23.17
2018-12-17T01:12:22.004Z,22.33
2018-12-17T01:14:50.407Z,23.80
2018-12-17T01:17:25.481Z,24.10
2018-12-17T01:19:53.948Z,21.87
2018-12-17T01:22:22.384Z,23.47
2018-12-17T01:24:50.805Z,21.67
2018-12-17T01:27:19.271Z,22.70
2018-12-17T01:29:47.683Z,21.07
2018-12-17T01:32:16.098Z,22.13
2018-12-17T01:34:44.540Z,21.50
2018-12-17T01:37:12.968Z,21.37
2018-12-17T01:39:41.468Z,21.40
2018-12-17T01:42:09.882Z,20.93
2018-12-17T01:44:38.305Z,21.27
2018-12-17T01:47:06.816Z,20.50
2018-12-17T01:49:35.313Z,19.37
2018-12-17T01:52:03.874Z,20.10
2018-12-17T01:54:32.274Z,18.30
2018-12-17T01:57:00.669Z,19.70
2018-12-17T01:59:29.108Z,18.53
2018-12-17T02:01:57.613Z,18.30
2018-12-17T02:04:25.992Z,19.37
2018-12-17T02:06:54.498Z,19.07
2018-12-17T02:09:22.980Z,19.63
2018-12-17T02:11:51.387Z,17.93
2018-12-17T02:14:19.799Z,17.97
2018-12-17T02:16:48.210Z,18.30
2018-12-17T02:19:16.613Z,17.73
2018-12-17T02:21:45.070Z,18.40
2018-12-17T02:24:13.723Z,18.97
2018-12-17T02:26:42.132Z,18.87
2018-12-17T02:29:10.547Z,19.17
2018-12-17T02:31:38.994Z,20.03
2018-12-17T02:34:07.447Z,18.80
2018-12-17T02:36:35.947Z,19.23
2018-12-17T02:39:07.244Z,17.83
2018-12-17T02:41:35.752Z,17.77
2018-12-17T02:44:04.670Z,17.00
2018-12-17T02:46:33.101Z,17.50
2018-12-17T02:49:01.542Z,16.07
2018-12-17T02:51:29.977Z,15.50
2018-12-17T02:53:58.459Z,15.63
2018-12-17T02:56:26.866Z,15.90
2018-12-17T02:58:55.501Z,14.77
2018-12-17T03:01:23.892Z,14.27
2018-12-17T03:03:52.322Z,14.87
2018-12-17T03:06:20.734Z,14.43
2018-12-17T03:08:49.136Z,13.40
2018-12-17T03:11:17.612Z,13.07
2018-12-17T03:13:46.071Z,13.33
2018-12-17T03:16:14.555Z,13.33
2018-12-17T03:18:42.967Z,12.73
2018-12-17T03:21:11.504Z,12.13
2018-12-17T03:23:39.896Z,12.03
2018-12-17T03:26:08.316Z,10.63
2018-12-17T03:28:36.909Z,10.50
2018-12-17T03:31:05.363Z,10.87
2018-12-17T03:33:33.839Z,9.93
2018-12-17T03:36:02.234Z,10.17
2018-12-17T03:38:30.699Z,9.53
2018-12-17T03:40:59.162Z,9.23
2018-12-17T03:43:27.558Z,9.27
2018-12-17T03:45:55.972Z,8.80
2018-12-17T03:48:24.457Z,8.93
2018-12-17T03:50:52.844Z,8.83
2018-12-17T03:53:21.304Z,8.60
2018-12-17T03:55:49.700Z,8.77
2018-12-17T03:58:18.147Z,7.80
2018-12-17T04:00:46.573Z,8.10
2018-12-17T04:03:15.096Z,7.97
2018-12-17T04:05:43.510Z,7.10
2018-12-17T04:08:11.917Z,7.37
2018-12-17T04:10:40.329Z,7.10
2018-12-17T04:13:08.742Z,7.63
2018-12-17T04:15:37.403Z,7.00
2018-12-17T04:18:05.851Z,7.40
2018-12-17T04:20:34.265Z,6.93
2018-12-17T04:23:02.688Z,6.23
2018-12-17T04:25:31.260Z,7.20
2018-12-17T04:27:59.729Z,6.33
2018-12-17T04:30:28.176Z,6.23
2018-12-17T04:32:56.607Z,6.37
2018-12-17T04:35:25.124Z,5.97
2018-12-17T04:37:53.753Z,5.83
2018-12-17T04:40:22.172Z,5.70
2018-12-17T04:42:50.573Z,5.60
2018-12-17T04:45:19.015Z,4.90
2018-12-17T04:47:47.398Z,6.17
2018-12-17T04:50:15.890Z,5.20
2018-12-17T04:52:44.259Z,4.30
2018-12-17T04:55:12.711Z,3.80
2018-12-17T04:57:41.232Z,4.00
2018-12-17T05:00:10.205Z,4.60
2018-12-17T05:02:38.629Z,3.20
2018-12-17T05:05:07.177Z,3.90
2018-12-17T05:07:35.616Z,3.43
2018-12-17T05:10:04.794Z,3.50
2018-12-17T05:12:33.197Z,2.70
2018-12-17T05:15:01.601Z,3.00
2018-12-17T05:17:30.024Z,4.20
2018-12-17T05:19:58.421Z,2.90
2018-12-17T05:22:26.885Z,3.30
2018-12-17T05:24:55.280Z,3.00
2018-12-17T05:27:23.708Z,2.80
2018-12-17T05:29:52.114Z,2.67
2018-12-17T05:32:20.535Z,3.27
2018-12-17T05:34:48.993Z,2.80
2018-12-17T05:37:17.389Z,2.73
2018-12-17T05:39:45.772Z,2.50
2018-12-17T05:42:14.195Z,2.93
2018-12-17T05:44:43.003Z,2.73
2018-12-17T05:47:11.423Z,2.70
2018-12-17T05:49:39.821Z,2.47
2018-12-17T05:52:08.220Z,2.97
2018-12-17T05:54:36.607Z,2.80
2018-12-17T05:57:05.006Z,3.63
2018-12-17T05:59:33.438Z,2.50
2018-12-17T06:02:01.861Z,2.77
2018-12-17T06:04:30.265Z,2.40
2018-12-17T06:06:58.667Z,2.33
2018-12-17T06:09:27.371Z,2.47
2018-12-17T06:11:56.095Z,3.27
2018-12-17T06:14:24.491Z,2.87
2018-12-17T06:16:52.918Z,2.97
2018-12-17T06:19:21.316Z,2.47
2018-12-17T06:21:49.704Z,2.73
2018-12-17T06:24:18.102Z,2.50
2018-12-17T06:26:46.480Z,2.20
2018-12-17T06:29:14.871Z,2.47
2018-12-17T06:31:43.351Z,1.90
2018-12-17T06:34:11.847Z,2.07
2018-12-17T06:36:40.248Z,2.40
2018-12-17T06:39:08.971Z,2.60
2018-12-17T06:41:37.354Z,2.77
2018-12-17T06:44:05.756Z,1.90
2018-12-17T06:46:34.133Z,1.73
2018-12-17T06:49:02.528Z,2.03
2018-12-17T06:51:31.140Z,2.07
2018-12-17T06:53:59.519Z,2.50
2018-12-17T06:56:28.084Z,1.63
2018-12-17T06:58:56.494Z,2.10
2018-12-17T07:01:24.949Z,1.63
2018-12-17T07:03:53.331Z,1.53
2018-12-17T07:06:21.842Z,1.90
2018-12-17T07:08:50.791Z,2.40
2018-12-17T07:11:19.349Z,2.03
2018-12-17T07:13:47.783Z,1.83
2018-12-17T07:16:16.212Z,2.30
2018-12-17T07:18:44.608Z,2.10
2018-12-17T07:21:13.043Z,2.10
2018-12-17T07:23:41.464Z,1.80
2018-12-17T07:26:09.841Z,2.07
2018-12-17T07:28:38.284Z,2.10
2018-12-17T07:31:06.687Z,2.13
2018-12-17T07:33:35.112Z,2.37
2018-12-17T07:36:03.524Z,2.77
2018-12-17T07:38:31.942Z,2.73
2018-12-17T07:41:00.392Z,3.53
2018-12-17T07:43:28.828Z,3.10
2018-12-17T07:45:57.266Z,2.70
2018-12-17T07:48:25.671Z,2.80
2018-12-17T07:50:54.060Z,2.47
2018-12-17T07:53:22.482Z,3.20
2018-12-17T07:55:50.873Z,3.30
2018-12-17T07:58:19.298Z,2.40
2018-12-17T08:00:47.683Z,3.23
2018-12-17T08:03:16.079Z,3.40
2018-12-17T08:05:44.525Z,2.80
2018-12-17T08:08:12.942Z,3.17
2018-12-17T08:10:41.336Z,3.17
2018-12-17T08:13:09.849Z,2.73
2018-12-17T08:15:38.283Z,3.20
2018-12-17T08:18:18.026Z,3.60
2018-12-17T08:20:46.414Z,3.00
2018-12-17T08:23:14.973Z,3.67
2018-12-17T08:25:43.399Z,3.63
2018-12-17T08:28:11.889Z,3.30
2018-12-17T08:30:40.304Z,3.60
2018-12-17T08:33:09.014Z,4.90
2018-12-17T08:35:37.542Z,3.13
2018-12-17T08:38:06.473Z,4.20
2018-12-17T08:40:34.897Z,3.30
2018-12-17T08:43:03.447Z,3.17
2018-12-17T08:45:31.876Z,3.77
2018-12-17T08:48:00.277Z,3.60
2018-12-17T08:50:28.703Z,4.23
2018-12-17T08:52:57.354Z,3.67
2018-12-17T08:55:25.752Z,3.60
2018-12-17T08:57:54.282Z,5.33
2018-12-17T09:00:22.790Z,6.67
2018-12-17T09:02:51.257Z,6.33
2018-12-17T09:05:19.707Z,5.27
2018-12-17T09:07:48.116Z,5.93
2018-12-17T09:10:16.681Z,6.17
2018-12-17T09:12:45.085Z,5.93
2018-12-17T09:15:13.495Z,5.77
2018-12-17T09:17:41.971Z,5.43
2018-12-17T09:20:10.491Z,4.40
2018-12-17T09:22:39.035Z,4.17
2018-12-17T09:25:07.847Z,4.60
2018-12-17T09:27:36.255Z,4.13
2018-12-17T09:30:05.909Z,3.53
2018-12-17T09:32:34.287Z,3.57
2018-12-17T09:35:02.739Z,3.30
2018-12-17T09:37:31.265Z,3.43
2018-12-17T09:39:59.777Z,4.40
2018-12-17T09:42:28.303Z,3.50
2018-12-17T09:44:56.706Z,3.47
2018-12-17T09:47:25.140Z,3.93
2018-12-17T09:49:53.559Z,3.73
2018-12-17T09:52:22.034Z,3.30
2018-12-17T09:54:50.478Z,3.63
2018-12-17T09:57:18.896Z,4.03
2018-12-17T09:59:47.341Z,4.00
2018-12-17T10:02:15.766Z,3.80
2018-12-17T10:04:44.187Z,4.00
2018-12-17T10:07:12.595Z,5.27
2018-12-17T10:09:40.989Z,4.40
2018-12-17T10:12:09.435Z,3.93
2018-12-17T10:14:37.863Z,5.27
2018-12-17T10:17:06.301Z,4.80
2018-12-17T10:19:34.719Z,5.30
2018-12-17T10:22:03.161Z,5.60
2018-12-17T10:24:31.586Z,4.70
2018-12-17T10:27:00.011Z,5.10
2018-12-17T10:29:28.433Z,4.93
2018-12-17T10:31:56.845Z,5.33
2018-12-17T10:34:25.276Z,5.80
2018-12-17T10:36:53.854Z,6.00
2018-12-17T10:39:22.336Z,5.30
2018-12-17T10:41:50.804Z,5.30
2018-12-17T10:44:19.190Z,4.53
2018-12-17T10:46:47.610Z,4.60
2018-12-17T10:49:16.002Z,5.50
2018-12-17T10:51:44.409Z,4.97
2018-12-17T10:54:12.813Z,4.83
2018-12-17T10:56:41.280Z,4.60
2018-12-17T10:59:09.751Z,5.10
2018-12-17T11:01:43.587Z,4.13
2018-12-17T11:04:16.256Z,5.33
2018-12-17T11:06:45.235Z,4.00
2018-12-17T11:09:13.647Z,3.80
2018-12-17T11:11:42.186Z,3.70
2018-12-17T11:14:10.719Z,3.77
2018-12-17T11:16:39.287Z,2.93
2018-12-17T11:19:07.781Z,2.70
2018-12-17T11:21:36.425Z,2.90
2018-12-17T11:24:04.885Z,2.37
2018-12-17T11:26:33.323Z,3.07
2018-12-17T11:29:01.720Z,2.83
2018-12-17T11:31:30.137Z,3.27
2018-12-17T11:33:58.548Z,3.00
2018-12-17T11:36:27.485Z,2.40
2018-12-17T11:38:56.020Z,3.00
2018-12-17T11:41:24.719Z,3.00
2018-12-17T11:43:53.132Z,2.90
2018-12-17T11:46:21.680Z,2.93
2018-12-17T11:48:50.126Z,3.00
2018-12-17T11:51:18.531Z,3.20
2018-12-17T11:53:47.022Z,3.20
2018-12-17T11:56:15.452Z,3.27
2018-12-17T11:58:43.864Z,3.00
2018-12-17T12:01:12.858Z,2.97
2018-12-17T12:03:43.184Z,3.93
2018-12-17T12:06:14.261Z,3.03
2018-12-17T12:08:42.266Z,2.80
2018-12-17T12:11:10.802Z,3.20
2018-12-17T12:13:39.273Z,2.93
2018-12-17T12:16:07.703Z,2.87
2018-12-17T12:18:36.148Z,2.90
2018-12-17T12:21:04.567Z,3.47
2018-12-17T12:23:32.989Z,2.70
2018-12-17T12:26:01.385Z,2.97
2018-12-17T12:28:30.084Z,3.30
2018-12-17T12:31:00.616Z,2.67
2018-12-17T12:33:29.176Z,2.87
2018-12-17T12:35:57.607Z,3.03
2018-12-17T12:38:26.095Z,3.07
2018-12-17T12:40:54.539Z,3.43
2018-12-17T12:43:22.994Z,2.57
2018-12-17T12:45:51.517Z,2.50
2018-12-17T12:48:20.082Z,2.80
2018-12-17T12:50:48.511Z,3.20
2018-12-17T12:53:16.941Z,3.13
2018-12-17T12:55:45.436Z,2.63
2018-12-17T12:58:13.959Z,3.00
2018-12-17T13:00:42.383Z,2.87
2018-12-17T13:03:10.800Z,2.93
2018-12-17T13:05:39.215Z,2.97
2018-12-17T13:08:07.612Z,3.37
2018-12-17T13:10:36.375Z,3.27
2018-12-17T13:13:04.916Z,3.53
2018-12-17T13:15:33.349Z,3.43
2018-12-17T13:18:01.784Z,3.53
2018-12-17T13:20:30.243Z,3.50
2018-12-17T13:22:58.642Z,3.37
2018-12-17T13:25:31.019Z,3.80
2018-12-17T13:27:59.416Z,3.20
2018-12-17T13:30:27.835Z,3.10
2018-12-17T13:32:56.269Z,2.90
2018-12-17T13:35:24.721Z,3.27
2018-12-17T13:37:53.165Z,2.97
2018-12-17T13:40:21.733Z,3.40
2018-12-17T13:42:50.126Z,3.40
2018-12-17T13:45:18.543Z,2.63
2018-12-17T13:47:47.011Z,3.07
2018-12-17T13:50:20.923Z,2.00
2018-12-17T13:52:49.389Z,2.53
2018-12-17T13:55:17.802Z,2.37
2018-12-17T13:57:46.212Z,2.50
2018-12-17T14:00:14.633Z,3.07
2018-12-17T14:02:43.045Z,3.23
2018-12-17T14:05:11.443Z,2.70
2018-12-17T14:07:39.916Z,2.60
2018-12-17T14:10:15.552Z,2.87
2018-12-17T14:12:43.957Z,2.40
2018-12-17T14:15:12.429Z,2.40
2018-12-17T14:17:45.121Z,3.97
2018-12-17T14:20:19.100Z,3.10
2018-12-17T14:22:47.656Z,3.73
2018-12-17T14:25:16.096Z,3.70
2018-12-17T14:27:44.719Z,4.30
2018-12-17T14:30:13.536Z,3.93
2018-12-17T14:32:42.261Z,3.73
2018-12-17T14:35:10.776Z,4.03
2018-12-17T14:37:44.613Z,3.40
2018-12-17T14:40:20.256Z,4.33
2018-12-17T14:42:48.745Z,4.10
2018-12-17T14:45:17.179Z,3.80
2018-12-17T14:47:45.614Z,3.80
2018-12-17T14:50:14.037Z,4.60
2018-12-17T14:52:42.503Z,4.23
2018-12-17T14:55:11.128Z,4.50
2018-12-17T14:57:39.568Z,4.27
2018-12-17T15:00:08.233Z,4.60
2018-12-17T15:02:36.633Z,5.10
2018-12-17T15:05:05.718Z,4.50
2018-12-17T15:07:34.122Z,4.73
2018-12-17T15:10:02.986Z,5.07
2018-12-17T15:12:31.398Z,5.17
2018-12-17T15:14:59.936Z,5.10
2018-12-17T15:17:28.408Z,4.77
2018-12-17T15:19:56.915Z,4.80
2018-12-17T15:22:25.334Z,4.77
2018-12-17T15:24:53.854Z,4.30
2018-12-17T15:27:22.344Z,4.53
2018-12-17T15:29:50.952Z,4.40
2018-12-17T15:32:19.372Z,4.40
2018-12-17T15:34:47.791Z,4.67
2018-12-17T15:37:16.181Z,4.27
2018-12-17T15:39:44.572Z,5.00
2018-12-17T15:42:13.171Z,5.37
2018-12-17T15:44:42.562Z,5.43
2018-12-17T15:47:11.016Z,4.97
2018-12-17T15:49:39.496Z,4.90
2018-12-17T15:52:07.902Z,4.87
2018-12-17T15:54:36.360Z,5.30
2018-12-17T15:57:04.887Z,5.60
2018-12-17T15:59:33.409Z,4.73
2018-12-17T16:02:01.828Z,5.43
2018-12-17T16:04:30.269Z,5.13
2018-12-17T16:06:58.688Z,4.27
2018-12-17T16:09:27.090Z,5.30
2018-12-17T16:11:55.652Z,5.80
2018-12-17T16:14:24.176Z,6.53
2018-12-17T16:16:52.613Z,6.10
2018-12-17T16:19:21.048Z,6.70
2018-12-17T16:21:49.500Z,6.03
2018-12-17T16:24:18.120Z,6.90
2018-12-17T16:26:46.674Z,7.27
2018-12-17T16:29:15.087Z,6.90
2018-12-17T16:31:43.490Z,8.23
2018-12-17T16:34:11.896Z,7.10
2018-12-17T16:36:40.659Z,7.47
2018-12-17T16:39:09.051Z,7.70
2018-12-17T16:41:39.101Z,6.70
2018-12-17T16:44:07.592Z,8.07
2018-12-17T16:46:36.073Z,7.57
2018-12-17T16:49:05.087Z,8.70
2018-12-17T16:51:33.542Z,8.67
2018-12-17T16:54:01.949Z,8.07
2018-12-17T16:56:30.693Z,7.87
2018-12-17T16:58:59.246Z,7.63
2018-12-17T17:01:27.671Z,7.60
2018-12-17T17:03:56.081Z,7.37
2018-12-17T17:06:24.515Z,7.23
2018-12-17T17:08:52.968Z,8.00
2018-12-17T17:11:21.414Z,7.23
2018-12-17T17:13:49.989Z,7.07
2018-12-17T17:16:18.393Z,8.17
2018-12-17T17:18:46.820Z,7.30
2018-12-17T17:21:15.249Z,7.87
2018-12-17T17:23:44.209Z,7.70
2018-12-17T17:26:12.637Z,10.37
2018-12-17T17:28:41.136Z,9.20
2018-12-17T17:31:09.652Z,9.40
2018-12-17T17:33:38.069Z,9.17
2018-12-17T17:36:06.476Z,9.20
2018-12-17T17:38:34.881Z,10.03
2018-12-17T17:41:04.228Z,9.33
2018-12-17T17:43:32.686Z,9.43
2018-12-17T17:46:01.102Z,11.07
2018-12-17T17:48:29.676Z,10.33
2018-12-17T17:50:58.132Z,11.00
2018-12-17T17:53:26.644Z,11.13
2018-12-17T17:55:55.118Z,11.07
2018-12-17T17:58:23.925Z,11.27
2018-12-17T18:00:52.342Z,11.50
2018-12-17T18:03:34.756Z,11.20
2018-12-17T18:06:03.413Z,12.37
2018-12-17T18:08:32.016Z,12.40
2018-12-17T18:11:01.584Z,12.77
2018-12-17T18:13:30.010Z,12.83
2018-12-17T18:15:59.058Z,13.40
2018-12-17T18:18:27.479Z,13.47
2018-12-17T18:20:55.885Z,15.07
2018-12-17T18:23:24.309Z,14.37
2018-12-17T18:25:52.764Z,14.60
2018-12-17T18:28:21.223Z,14.73
2018-12-17T18:30:49.642Z,15.27
2018-12-17T18:33:18.093Z,14.13
2018-12-17T18:35:46.504Z,13.27
2018-12-17T18:38:14.942Z,14.23
2018-12-17T18:40:44.108Z,13.40
2018-12-17T18:43:12.566Z,14.57
2018-12-17T18:45:42.326Z,13.43
2018-12-17T18:48:10.838Z,13.17
2018-12-17T18:50:39.234Z,13.43
2018-12-17T18:53:07.748Z,14.97
2018-12-17T18:55:36.156Z,14.13
2018-12-17T18:58:04.579Z,14.47
2018-12-17T19:00:33.056Z,14.23
2018-12-17T19:03:01.541Z,13.97
2018-12-17T19:05:29.949Z,14.90
2018-12-17T19:07:58.359Z,15.43
2018-12-17T19:10:31.178Z,14.60
2018-12-17T19:12:59.672Z,17.10
2018-12-17T19:15:28.194Z,16.90
2018-12-17T19:17:56.721Z,17.27
2018-12-17T19:20:25.124Z,16.33
2018-12-17T19:22:53.562Z,18.53
2018-12-17T19:25:21.978Z,16.43
2018-12-17T19:27:50.408Z,17.13
2018-12-17T19:30:18.890Z,17.17
2018-12-17T19:32:47.346Z,16.80
2018-12-17T19:35:15.874Z,17.43
2018-12-17T19:37:44.308Z,17.53
2018-12-17T19:40:12.728Z,17.73
2018-12-17T19:42:41.129Z,17.57
2018-12-17T19:45:09.664Z,17.30
2018-12-17T19:47:38.089Z,18.73
2018-12-17T19:50:07.244Z,18.83
2018-12-17T19:52:35.663Z,17.77
2018-12-17T19:55:04.309Z,19.03
2018-12-17T19:57:32.722Z,16.07
2018-12-17T20:00:01.206Z,17.07
2018-12-17T20:02:29.622Z,16.47
2018-12-17T20:04:58.076Z,17.63
2018-12-17T20:07:26.506Z,16.90
2018-12-17T20:09:54.930Z,16.70
2018-12-17T20:12:23.360Z,15.47
2018-12-17T20:14:51.755Z,15.53
2018-12-17T20:17:20.354Z,15.83
2018-12-17T20:19:48.858Z,16.37
2018-12-17T20:22:17.254Z,17.50
2018-12-17T20:24:45.648Z,17.00
2018-12-17T20:27:14.043Z,16.50
2018-12-17T20:29:42.471Z,17.00
2018-12-17T20:32:10.971Z,17.33
2018-12-17T20:34:39.785Z,15.83
2018-12-17T20:37:08.343Z,15.23
2018-12-17T20:39:36.803Z,16.33
2018-12-17T20:42:05.228Z,15.37
2018-12-17T20:44:33.694Z,14.10
2018-12-17T20:47:02.107Z,14.37
2018-12-17T20:49:30.639Z,14.03
2018-12-17T20:51:59.150Z,13.93
2018-12-17T20:54:27.591Z,14.63
2018-12-17T20:56:56.049Z,13.00
2018-12-17T20:59:24.518Z,12.57
2018-12-17T21:01:53.169Z,12.63
2018-12-17T21:04:21.700Z,12.03
2018-12-17T21:06:50.271Z,11.43
2018-12-17T21:09:19.000Z,10.93
2018-12-17T21:11:47.561Z,11.73
2018-12-17T21:14:15.992Z,11.47
2018-12-17T21:16:44.393Z,11.43
2018-12-17T21:19:12.919Z,13.00
2018-12-17T21:21:43.575Z,11.97
2018-12-17T21:24:13.575Z,11.63
2018-12-17T21:26:45.666Z,10.80
2018-12-17T21:29:14.409Z,10.40
2018-12-17T21:31:44.151Z,10.10
2018-12-17T21:34:13.297Z,10.77
2018-12-17T21:36:42.504Z,10.30
2018-12-17T21:39:11.176Z,10.47
2018-12-17T21:41:39.881Z,10.10
2018-12-17T21:44:09.353Z,10.43
2018-12-17T21:46:37.978Z,10.73
2018-12-17T21:49:11.276Z,11.90
2018-12-17T21:51:40.647Z,11.63
2018-12-17T21:54:10.223Z,10.93
2018-12-17T21:56:38.942Z,12.47
2018-12-17T21:59:08.222Z,11.37
2018-12-17T22:01:36.842Z,11.87
2018-12-17T22:04:05.608Z,13.33
2018-12-17T22:06:36.498Z,14.00
2018-12-17T22:09:07.570Z,13.30
2018-12-17T22:11:36.578Z,13.07
2018-12-17T22:14:06.407Z,14.33
2018-12-17T22:16:36.435Z,13.67
2018-12-17T22:19:05.908Z,15.47
2018-12-17T22:21:34.558Z,14.67
2018-12-17T22:24:03.148Z,16.53
2018-12-17T22:26:31.809Z,19.00
2018-12-17T22:29:00.302Z,18.53
2018-12-17T22:31:28.683Z,19.63
2018-12-17T22:33:57.145Z,21.13
2018-12-17T22:36:25.591Z,20.83
2018-12-17T22:38:54.013Z,21.97
2018-12-17T22:41:22.479Z,24.20
2018-12-17T22:43:50.915Z,23.87
2018-12-17T22:46:19.344Z,23.43
2018-12-17T22:48:47.760Z,24.37
2018-12-17T22:51:16.189Z,25.83
2018-12-17T22:53:44.711Z,27.20
2018-12-17T22:56:13.148Z,30.57
2018-12-17T22:58:42.481Z,28.40
2018-12-17T23:01:11.683Z,28.30
2018-12-17T23:03:40.165Z,28.30
2018-12-17T23:06:08.641Z,33.43
2018-12-17T23:08:40.716Z,30.30
2018-12-17T23:11:20.591Z,31.13
2018-12-17T23:14:00.279Z,30.00
2018-12-17T23:16:39.920Z,30.77
2018-12-17T23:19:07.313Z,29.67
2018-12-17T23:21:35.975Z,30.57
2018-12-17T23:24:04.551Z,30.80
2018-12-17T23:26:33.022Z,31.20
2018-12-17T23:29:01.499Z,31.17
2018-12-17T23:31:30.074Z,31.50
2018-12-17T23:33:58.477Z,32.27
2018-12-17T23:36:26.867Z,32.00
2018-12-17T23:38:55.307Z,33.07
2018-12-17T23:41:23.690Z,32.73
2018-12-17T23:43:52.313Z,34.27
2018-12-17T23:46:20.804Z,33.30
2018-12-17T23:48:49.254Z,35.00
2018-12-17T23:51:17.662Z,34.53
2018-12-17T23:53:46.185Z,34.77
2018-12-17T23:56:14.785Z,36.27
2018-12-17T23:58:43.193Z,36.17
